Time;durP1;ratioP1;P1;durP2;ratioP2;P2;SDS_P1;SDS_P2;PMS_P1;PMS_P2;Temp;Humidity;BMP_temperature;BMP_pressure;BME280_temperature;BME280_humidity;BME280_pressure;Samples;Min_cycle;Max_cycle;Signal;HPM_P1;HPM_P2
2023/01/26 07:03:44;;;;;;;;;;;;;;;3.17;60.97;97059.28;4258733;27;10530;-63
2023/01/26 07:05:47;;;;;;;;;;;;;;;3.40;60.51;97058.00;4245255;27;5654;-62
2023/01/26 07:07:49;;;;;;;;;;;;;;;3.67;60.12;97059.84;4241054;27;5661;-63
2023/01/26 07:09:52;;;;;;;;;;;;;;;3.90;59.81;97057.66;4241947;27;5777;-61
2023/01/26 07:11:55;;;;;;;;;;;;;;;4.12;59.46;97053.03;4241842;27;5737;-62
2023/01/26 07:13:58;;;;;;;;;;;;;;;4.21;59.14;97042.50;4245313;27;5641;-62
2023/01/26 07:16:01;;;;;;;;;;;;;;;4.21;58.84;97049.53;4245661;27;6474;-62
2023/01/26 07:18:04;;;;;;;;;;;;;;;4.23;58.88;97051.03;4249025;27;5654;-63
2023/01/26 07:20:11;;;;;;;;;;;;;;;4.30;58.89;97046.84;4248464;27;5744;-62
2023/01/26 07:22:14;;;;;;;;;;;;;;;4.36;58.61;97048.03;4242970;27;5742;-63
2023/01/26 07:24:18;;;;;;;;;;;;;;;4.42;58.69;97039.63;4236819;27;5642;-63
2023/01/26 07:26:21;;;;;;;;;;;;;;;4.54;58.50;97041.03;4239941;27;5642;-62
2023/01/26 07:28:24;;;;;;;;;;;;;;;4.64;58.34;97039.16;4234062;27;5899;-62
2023/01/26 07:30:27;;;;;;;;;;;;;;;4.67;58.25;97041.47;4246660;27;6630;-63
2023/01/26 07:32:30;;;;;;;;;;;;;;;4.66;57.97;97042.47;4240164;27;5664;-62
2023/01/26 07:34:32;;;;;;;;;;;;;;;4.67;58.12;97035.41;4247394;27;5675;-63
2023/01/26 07:36:36;;;;;;;;;;;;;;;4.68;58.09;97040.50;4239795;27;5740;-63
2023/01/26 07:38:39;;;;;;;;;;;;;;;4.73;57.93;97036.59;4231101;27;5663;-63
2023/01/26 07:40:42;;;;;;;;;;;;;;;4.75;57.63;97032.03;4239592;27;5076;-63
2023/01/26 07:42:46;;;;;;;;;;;;;;;4.81;57.78;97037.50;4232273;27;5671;-63
2023/01/26 07:44:49;;;;;;;;;;;;;;;4.87;57.59;97043.91;4248389;27;5748;-63
2023/01/26 07:46:52;;;;;;;;;;;;;;;4.91;57.43;97038.25;4236834;27;5667;-63
2023/01/26 07:48:55;;;;;;;;;;;;;;;4.91;57.35;97037.41;4239794;27;5646;-63
2023/01/26 07:50:59;;;;;;;;;;;;;;;4.87;57.27;97046.53;4242417;27;5745;-63
2023/01/26 07:53:04;;;;;;;;;;;;;;;4.90;57.42;97041.84;4244543;27;5747;-62
2023/01/26 07:55:07;;;;;;;;;;;;;;;4.96;57.37;97037.78;4231543;28;5915;-63
2023/01/26 07:57:10;;;;;;;;;;;;;;;4.96;57.03;97030.72;4231289;27;6522;-63
2023/01/26 07:59:13;;;;;;;;;;;;;;;4.98;57.03;97041.06;4244445;27;5657;-63
2023/01/26 08:01:16;;;;;;;;;;;;;;;5.01;56.94;97029.47;4248186;27;6430;-63
2023/01/26 08:03:19;;;;;;;;;;;;;;;4.99;56.85;97026.19;4244653;27;5784;-63
2023/01/26 08:05:21;;;;;;;;;;;;;;;5.01;56.87;97034.72;4222404;28;5663;-63
2023/01/26 08:07:24;;;;;;;;;;;;;;;5.00;56.82;97022.59;4228020;28;5668;-63
2023/01/26 08:09:28;;;;;;;;;;;;;;;5.03;56.75;97028.34;4226316;28;5740;-63
2023/01/26 08:11:34;;;;;;;;;;;;;;;5.06;56.81;97027.22;4229029;28;6573;-63
2023/01/26 08:13:37;;;;;;;;;;;;;;;5.08;56.55;97027.88;4235843;28;5646;-63
2023/01/26 08:15:40;;;;;;;;;;;;;;;5.08;56.58;97023.44;4227960;28;5725;-63
2023/01/26 08:17:42;;;;;;;;;;;;;;;5.11;56.29;97031.03;4228321;28;5789;-63
2023/01/26 08:19:46;;;;;;;;;;;;;;;5.10;56.25;97028.56;4235207;28;5658;-63
2023/01/26 08:21:49;;;;;;;;;;;;;;;5.10;56.38;97024.16;4226934;28;6326;-63
2023/01/26 08:23:52;;;;;;;;;;;;;;;5.14;56.22;97025.47;4220936;28;5662;-63
2023/01/26 08:26:00;;;;;;;;;;;;;;;5.21;56.01;97036.19;4227884;28;5750;-63
2023/01/26 08:28:03;;;;;;;;;;;;;;;5.23;55.81;97037.66;4232929;28;5828;-63
2023/01/26 08:30:08;;;;;;;;;;;;;;;5.21;55.64;97031.75;4227671;28;5667;-63
2023/01/26 08:32:11;;;;;;;;;;;;;;;5.20;55.91;97039.75;4232309;28;5115;-62
2023/01/26 08:34:14;;;;;;;;;;;;;;;5.19;55.79;97028.44;4231180;28;5691;-63
2023/01/26 08:36:19;;;;;;;;;;;;;;;5.18;55.43;97026.81;4224672;28;5645;-62
2023/01/26 08:38:24;;;;;;;;;;;;;;;5.03;55.56;97027.53;4227353;28;6370;-63
2023/01/26 08:40:27;;;;;;;;;;;;;;;5.03;55.66;97028.34;4229340;28;5783;-63
2023/01/26 08:42:32;;;;;;;;;;;;;;;5.06;55.62;97028.03;4219309;28;5734;-63
2023/01/26 08:44:34;;;;;;;;;;;;;;;5.08;55.40;97036.56;4227659;28;5659;-64
2023/01/26 08:46:37;;;;;;;;;;;;;;;5.07;55.57;97034.91;4227610;28;5675;-63
2023/01/26 08:48:40;;;;;;;;;;;;;;;5.08;55.17;97033.94;4227487;28;5726;-63
2023/01/26 08:50:43;;;;;;;;;;;;;;;5.06;55.45;97035.06;4226287;28;5665;-63
2023/01/26 08:52:46;;;;;;;;;;;;;;;5.10;55.37;97024.16;4228185;28;5662;-63
2023/01/26 08:54:48;;;;;;;;;;;;;;;5.15;55.10;97032.34;4236037;28;5774;-63
2023/01/26 08:56:52;;;;;;;;;;;;;;;5.16;55.23;97036.63;4234446;28;5737;-63
2023/01/26 08:58:56;;;;;;;;;;;;;;;5.19;55.14;97031.06;4221274;28;5671;-63
2023/01/26 09:00:59;;;;;;;;;;;;;;;5.22;54.89;97032.56;4227464;28;5105;-63
2023/01/26 09:03:03;;;;;;;;;;;;;;;5.22;54.90;97028.16;4232326;28;7702;-63
2023/01/26 09:05:07;;;;;;;;;;;;;;;5.25;54.71;97033.09;4227356;28;5667;-63
2023/01/26 09:07:10;;;;;;;;;;;;;;;5.24;54.81;97030.63;4222804;28;5654;-64
2023/01/26 09:09:15;;;;;;;;;;;;;;;5.22;54.65;97030.78;4230595;28;5671;-63
2023/01/26 09:11:20;;;;;;;;;;;;;;;5.21;54.74;97026.50;4218904;27;6365;-63
2023/01/26 09:13:23;;;;;;;;;;;;;;;5.22;54.62;97028.16;4224499;28;5662;-63
2023/01/26 09:15:28;;;;;;;;;;;;;;;5.23;54.71;97029.78;4234799;28;5670;-63
2023/01/26 09:17:30;;;;;;;;;;;;;;;5.23;54.45;97028.97;4235777;28;5650;-63
2023/01/26 09:19:35;;;;;;;;;;;;;;;5.23;54.34;97016.69;4235162;28;5650;-63
2023/01/26 09:21:38;;;;;;;;;;;;;;;5.24;54.48;97031.44;4235515;28;5658;-63
2023/01/26 09:23:40;;;;;;;;;;;;;;;5.26;54.35;97034.72;4226878;27;5703;-63
2023/01/26 09:25:44;;;;;;;;;;;;;;;5.29;54.31;97027.53;4227658;28;5647;-63
2023/01/26 09:27:46;;;;;;;;;;;;;;;5.30;54.20;97031.78;4234477;28;5646;-63
2023/01/26 09:29:49;;;;;;;;;;;;;;;5.32;54.23;97027.22;4218856;28;5671;-63
2023/01/26 09:31:54;;;;;;;;;;;;;;;5.31;54.20;97036.06;4218552;28;5808;-62
2023/01/26 09:33:57;;;;;;;;;;;;;;;5.31;54.21;97030.81;4218725;28;6337;-62
2023/01/26 09:36:03;;;;;;;;;;;;;;;5.30;53.96;97034.41;4218622;28;5679;-62
2023/01/26 09:38:06;;;;;;;;;;;;;;;5.26;54.14;97036.53;4218468;28;6317;-63
2023/01/26 09:40:16;;;;;;;;;;;;;;;5.28;53.98;97036.38;4218503;27;7675;-64
2023/01/26 09:42:32;;;;;;;;;;;;;;;5.31;53.83;97036.06;4232593;28;5774;-64
2023/01/26 09:44:43;;;;;;;;;;;;;;;5.33;53.93;97028.88;4227314;28;5659;-64
2023/01/26 09:47:00;;;;;;;;;;;;;;;5.34;53.84;97025.28;4218366;28;5671;-64
2023/01/26 09:49:06;;;;;;;;;;;;;;;5.36;53.71;97033.81;4218674;27;5692;-63
2023/01/26 09:51:14;;;;;;;;;;;;;;;5.39;53.65;97033.50;4218497;28;5663;-63
2023/01/26 09:53:21;;;;;;;;;;;;;;;5.42;53.69;97034.00;4218007;28;5668;-64
2023/01/26 09:55:25;;;;;;;;;;;;;;;5.45;53.40;97028.47;4218191;28;5671;-62
2023/01/26 09:57:36;;;;;;;;;;;;;;;5.43;53.37;97029.56;4224843;28;5646;-61
2023/01/26 09:59:46;;;;;;;;;;;;;;;5.43;53.44;97027.75;4235228;28;5658;-63
2023/01/26 10:01:54;;;;;;;;;;;;;;;5.42;53.38;97027.94;4217978;28;5681;-62
2023/01/26 10:04:05;;;;;;;;;;;;;;;5.34;53.21;97035.75;4218075;28;5759;-63
2023/01/26 10:06:16;;;;;;;;;;;;;;;5.35;53.45;97026.91;4218058;28;5683;-64
2023/01/26 10:08:22;;;;;;;;;;;;;;;5.34;53.51;97025.28;4217805;28;5680;-63
2023/01/26 10:10:31;;;;;;;;;;;;;;;5.38;53.32;97026.59;4218030;28;5679;-64
2023/01/26 10:12:36;;;;;;;;;;;;;;;5.46;53.37;97032.72;4225627;28;5645;-63
2023/01/26 10:14:42;;;;;;;;;;;;;;;5.48;53.01;97025.53;4234933;27;5646;-63
2023/01/26 10:16:49;;;;;;;;;;;;;;;5.49;53.13;97028.97;4225443;28;5659;-63
2023/01/26 10:18:55;;;;;;;;;;;;;;;5.48;53.24;97028.13;4217623;28;5678;-63
2023/01/26 10:21:02;;;;;;;;;;;;;;;5.51;52.95;97019.13;4216686;28;5672;-64
2023/01/26 10:23:11;;;;;;;;;;;;;;;5.52;52.97;97023.41;4217586;28;5731;-62
2023/01/26 10:25:16;;;;;;;;;;;;;;;5.55;53.04;97023.94;4222635;28;5705;-63
2023/01/26 10:27:20;;;;;;;;;;;;;;;5.59;53.04;97024.44;4234479;28;5653;-63
2023/01/26 10:29:23;;;;;;;;;;;;;;;5.64;52.77;97023.94;4234748;27;5638;-63
2023/01/26 10:31:28;;;;;;;;;;;;;;;5.68;52.70;97025.31;4234675;28;5654;-63
2023/01/26 10:33:34;;;;;;;;;;;;;;;5.71;52.59;97025.81;4234532;28;5638;-63
2023/01/26 10:35:37;;;;;;;;;;;;;;;5.69;52.56;97019.06;4234750;28;5645;-63
2023/01/26 10:37:41;;;;;;;;;;;;;;;5.66;52.63;97014.94;4234717;28;5658;-63
2023/01/26 10:39:57;;;;;;;;;;;;;;;5.66;52.70;97014.13;4234583;28;5867;-63
2023/01/26 10:42:02;;;;;;;;;;;;;;;5.69;52.64;97019.06;4231881;28;5683;-63
2023/01/26 10:44:24;;;;;;;;;;;;;;;5.66;52.36;97014.13;4217768;28;5727;-63
2023/01/26 10:46:32;;;;;;;;;;;;;;;5.62;52.66;97013.63;4232657;28;6315;-63
2023/01/26 10:48:35;;;;;;;;;;;;;;;5.63;52.45;97020.50;4226607;28;5974;-63
2023/01/26 10:50:38;;;;;;;;;;;;;;;5.65;52.51;97015.09;4217730;28;5675;-63
2023/01/26 10:52:57;;;;;;;;;;;;;;;5.68;52.42;97012.19;4217433;28;5678;-63
2023/01/26 10:55:11;;;;;;;;;;;;;;;5.72;52.31;97009.06;4217512;28;5687;-64
2023/01/26 10:57:18;;;;;;;;;;;;;;;5.72;52.23;97001.22;4217602;28;5815;-63
2023/01/26 10:59:27;;;;;;;;;;;;;;;5.73;52.33;97008.09;4217687;28;5671;-64
2023/01/26 11:01:54;;;;;;;;;;;;;;;5.70;52.36;97004.97;4224573;28;5761;-64
2023/01/26 11:04:05;;;;;;;;;;;;;;;5.73;52.45;96996.78;4231943;28;5904;-64
2023/01/26 11:06:14;;;;;;;;;;;;;;;5.74;52.36;96994.00;4217770;28;5822;-64
2023/01/26 11:08:34;;;;;;;;;;;;;;;5.77;52.29;97001.53;4217436;28;5671;-64
2023/01/26 11:10:38;;;;;;;;;;;;;;;5.81;52.18;96992.41;4217671;28;5659;-64
2023/01/26 11:12:41;;;;;;;;;;;;;;;5.83;52.11;96997.47;4217522;28;5760;-64
2023/01/26 11:15:00;;;;;;;;;;;;;;;5.63;51.78;96994.28;4217387;28;5679;-63
2023/01/26 11:17:13;;;;;;;;;;;;;;;5.47;52.11;96988.97;4220445;28;5634;-63
2023/01/26 11:19:29;;;;;;;;;;;;;;;5.47;52.41;96994.22;4234312;27;5646;-64
2023/01/26 11:21:38;;;;;;;;;;;;;;;5.51;52.32;96995.53;4217780;28;5774;-64
2023/01/26 11:23:58;;;;;;;;;;;;;;;5.56;52.22;96993.28;4217209;28;5696;-64
2023/01/26 11:26:16;;;;;;;;;;;;;;;5.61;52.12;96990.19;4217443;28;5664;-64
2023/01/26 11:28:38;;;;;;;;;;;;;;;5.58;52.08;96983.44;4217174;28;5686;-62
2023/01/26 11:31:00;;;;;;;;;;;;;;;5.57;51.96;96984.44;4217420;28;5775;-64
2023/01/26 11:33:12;;;;;;;;;;;;;;;5.52;51.87;96991.94;4220450;27;6434;-64
2023/01/26 11:35:29;;;;;;;;;;;;;;;5.42;52.25;96975.50;4234414;28;5634;-64
2023/01/26 11:37:42;;;;;;;;;;;;;;;5.47;52.30;96981.09;4218425;28;5684;-64
2023/01/26 11:39:58;;;;;;;;;;;;;;;5.54;52.01;96979.47;4219573;27;5656;-64
2023/01/26 11:42:19;;;;;;;;;;;;;;;5.57;51.96;96981.00;4220643;27;5690;-64
2023/01/26 11:44:35;;;;;;;;;;;;;;;5.57;51.85;96968.69;4220497;28;5667;-64
2023/01/26 11:46:56;;;;;;;;;;;;;;;5.55;51.97;96970.66;4220204;28;5663;-64
2023/01/26 11:49:13;;;;;;;;;;;;;;;5.60;51.87;96971.00;4223074;27;5881;-64
2023/01/26 11:51:26;;;;;;;;;;;;;;;5.64;51.89;96968.88;4237273;28;5886;-63
2023/01/26 11:53:46;;;;;;;;;;;;;;;5.67;51.95;96964.16;4221383;28;5770;-63
2023/01/26 11:56:03;;;;;;;;;;;;;;;5.74;51.85;96967.75;4221368;28;5089;-64
2023/01/26 11:58:25;;;;;;;;;;;;;;;5.66;51.66;96961.66;4237196;28;7388;-64
2023/01/26 12:00:38;;;;;;;;;;;;;;;5.57;51.56;96967.88;4237264;27;5725;-64
2023/01/26 12:02:43;;;;;;;;;;;;;;;5.51;51.83;96964.06;4219831;28;5676;-63
2023/01/26 12:04:46;;;;;;;;;;;;;;;5.53;51.79;96959.47;4220854;28;5738;-63
2023/01/26 12:06:55;;;;;;;;;;;;;;;5.57;51.86;96952.97;4236955;28;5671;-63
2023/01/26 12:09:02;;;;;;;;;;;;;;;5.63;51.68;96949.69;4236783;28;5686;-63
2023/01/26 12:11:22;;;;;;;;;;;;;;;5.67;51.47;96951.03;4236926;28;5662;-63
2023/01/26 12:13:36;;;;;;;;;;;;;;;5.55;51.54;96941.81;4236694;28;5654;-63
2023/01/26 12:15:44;;;;;;;;;;;;;;;5.40;51.58;96944.19;4236741;28;5642;-63
2023/01/26 12:17:58;;;;;;;;;;;;;;;5.34;51.88;96936.16;4236648;28;5657;-63
2023/01/26 12:20:15;;;;;;;;;;;;;;;5.45;51.72;96941.13;4236757;27;5638;-63
2023/01/26 12:22:21;;;;;;;;;;;;;;;5.52;51.84;96936.84;4222597;28;5780;-64
2023/01/26 12:24:39;;;;;;;;;;;;;;;5.55;51.55;96937.38;4225770;28;6849;-63
2023/01/26 12:27:05;;;;;;;;;;;;;;;5.58;51.62;96935.44;4236634;28;5646;-64
2023/01/26 12:29:16;;;;;;;;;;;;;;;5.63;51.53;96936.56;4236766;27;6438;-64
2023/01/26 12:31:25;;;;;;;;;;;;;;;5.61;51.39;96938.53;4236593;28;5674;-63
2023/01/26 12:33:28;;;;;;;;;;;;;;;5.50;51.32;96947.50;4236697;28;6070;-64
2023/01/26 12:35:47;;;;;;;;;;;;;;;5.38;51.55;96934.84;4236346;28;6104;-63
2023/01/26 12:37:58;;;;;;;;;;;;;;;5.42;51.67;96936.16;4226565;28;5671;-64
2023/01/26 12:40:31;;;;;;;;;;;;;;;5.43;51.64;96925.50;4219580;28;5644;-63
2023/01/26 12:42:45;;;;;;;;;;;;;;;5.45;51.45;96935.88;4219440;28;5667;-63
2023/01/26 12:44:53;;;;;;;;;;;;;;;5.45;51.55;96923.56;4219482;28;5659;-64
2023/01/26 12:47:01;;;;;;;;;;;;;;;5.48;51.49;96928.50;4219623;28;5663;-64
2023/01/26 12:49:11;;;;;;;;;;;;;;;5.45;51.49;96918.34;4219486;28;5676;-64
2023/01/26 12:51:21;;;;;;;;;;;;;;;5.42;51.45;96921.25;4219446;28;6408;-63
2023/01/26 12:53:30;;;;;;;;;;;;;;;5.37;51.30;96920.91;4225161;28;5667;-63
2023/01/26 12:55:40;;;;;;;;;;;;;;;5.34;51.49;96913.38;4236084;28;5753;-64
2023/01/26 12:57:49;;;;;;;;;;;;;;;5.32;51.41;96911.88;4236418;28;5669;-63
2023/01/26 12:59:52;;;;;;;;;;;;;;;5.34;51.23;96917.78;4236153;28;5642;-63
2023/01/26 13:01:55;;;;;;;;;;;;;;;5.29;51.56;96910.38;4235819;28;5654;-63
2023/01/26 13:04:02;;;;;;;;;;;;;;;5.35;51.38;96914.19;4235968;28;5749;-63
2023/01/26 13:06:19;;;;;;;;;;;;;;;5.39;51.33;96903.22;4236074;28;5654;-64
2023/01/26 13:08:42;;;;;;;;;;;;;;;5.37;51.35;96904.38;4235905;28;5650;-64
2023/01/26 13:10:49;;;;;;;;;;;;;;;5.36;51.43;96902.72;4219226;28;5667;-64
2023/01/26 13:12:56;;;;;;;;;;;;;;;5.37;51.26;96907.00;4229022;28;5647;-64
2023/01/26 13:15:00;;;;;;;;;;;;;;;5.39;51.22;96897.97;4236021;28;5748;-64
2023/01/26 13:17:54;;;;;;;;;;;;;;;5.41;51.34;96892.56;4235766;28;5645;-64
2023/01/26 13:19:58;;;;;;;;;;;;;;;5.53;51.26;96899.16;4224897;27;5936;-64
2023/01/26 13:22:02;;;;;;;;;;;;;;;5.57;51.01;96894.44;4218829;27;5699;-64
2023/01/26 13:24:42;;;;;;;;;;;;;;;5.53;51.05;96896.53;4218660;28;5696;-63
2023/01/26 13:26:46;;;;;;;;;;;;;;;5.43;50.93;96903.72;4218770;28;5783;-64
2023/01/26 13:28:51;;;;;;;;;;;;;;;5.31;51.06;96895.31;4218506;28;5667;-64
2023/01/26 13:31:04;;;;;;;;;;;;;;;5.21;51.20;96894.63;4218623;28;5672;-62
2023/01/26 13:33:15;;;;;;;;;;;;;;;5.25;51.37;96896.78;4218553;28;6357;-63
2023/01/26 13:35:21;;;;;;;;;;;;;;;5.34;51.19;96891.59;4218494;28;5827;-62
2023/01/26 13:37:32;;;;;;;;;;;;;;;5.44;51.25;96884.41;4218721;28;5675;-63
2023/01/26 13:39:36;;;;;;;;;;;;;;;5.52;51.12;96882.63;4218332;28;5675;-62
2023/01/26 13:41:45;;;;;;;;;;;;;;;5.57;50.94;96879.53;4226323;28;5657;-63
2023/01/26 13:43:55;;;;;;;;;;;;;;;5.56;50.91;96888.38;4234037;28;5741;-63
2023/01/26 13:46:22;;;;;;;;;;;;;;;5.45;50.93;96884.25;4218433;28;5774;-63
2023/01/26 13:48:36;;;;;;;;;;;;;;;5.40;50.95;96888.31;4218320;28;5660;-63
2023/01/26 13:50:41;;;;;;;;;;;;;;;5.32;51.03;96890.88;4218578;28;5667;-64
2023/01/26 13:52:43;;;;;;;;;;;;;;;5.26;51.16;96887.94;4218248;28;6357;-64
2023/01/26 13:54:47;;;;;;;;;;;;;;;5.24;51.22;96889.91;4218162;28;5675;-64
2023/01/26 13:57:01;;;;;;;;;;;;;;;5.22;51.22;96894.47;4219442;28;5754;-63
2023/01/26 13:59:11;;;;;;;;;;;;;;;5.31;51.16;96886.63;4235235;27;6555;-64
2023/01/26 14:01:15;;;;;;;;;;;;;;;5.34;50.94;96878.47;4234561;28;5661;-64
2023/01/26 14:03:21;;;;;;;;;;;;;;;5.37;51.07;96875.53;4234866;27;5646;-63
2023/01/26 14:05:25;;;;;;;;;;;;;;;5.45;50.91;96879.00;4234969;28;5812;-63
2023/01/26 14:07:32;;;;;;;;;;;;;;;5.55;50.83;96873.63;4234972;28;5725;-64
2023/01/26 14:09:45;;;;;;;;;;;;;;;5.60;50.76;96876.56;4234970;28;5657;-64
2023/01/26 14:11:56;;;;;;;;;;;;;;;5.62;50.64;96876.41;4235059;28;5718;-64
2023/01/26 14:14:00;;;;;;;;;;;;;;;5.65;50.88;96869.03;4223545;28;5766;-63
2023/01/26 14:16:07;;;;;;;;;;;;;;;5.61;50.75;96874.78;4221157;28;5637;-64
2023/01/26 14:18:21;;;;;;;;;;;;;;;5.61;50.66;96875.59;4234877;27;5673;-64
2023/01/26 14:20:26;;;;;;;;;;;;;;;5.44;50.54;96877.38;4235241;28;5657;-64
2023/01/26 14:22:30;;;;;;;;;;;;;;;5.37;50.94;96872.91;4234868;28;5732;-65
2023/01/26 14:24:38;;;;;;;;;;;;;;;5.39;50.89;96881.44;4234744;28;5639;-64
2023/01/26 14:26:42;;;;;;;;;;;;;;;5.34;50.69;96875.84;4218009;28;5762;-64
2023/01/26 14:28:46;;;;;;;;;;;;;;;5.25;50.81;96882.84;4217877;28;5806;-64
2023/01/26 14:30:52;;;;;;;;;;;;;;;5.20;51.07;96879.88;4217955;28;5807;-64
2023/01/26 14:33:04;;;;;;;;;;;;;;;5.28;51.05;96879.09;4217705;28;5732;-64
2023/01/26 14:35:21;;;;;;;;;;;;;;;5.32;50.91;96873.38;4217950;28;5675;-64
2023/01/26 14:37:24;;;;;;;;;;;;;;;5.43;50.83;96872.25;4217809;28;5671;-64
2023/01/26 14:39:30;;;;;;;;;;;;;;;5.45;50.97;96875.56;4217512;28;5691;-64
2023/01/26 14:41:36;;;;;;;;;;;;;;;5.49;51.02;96888.19;4217721;28;6414;-64
2023/01/26 14:43:39;;;;;;;;;;;;;;;5.57;50.82;96883.97;4217869;28;5687;-64
2023/01/26 14:45:48;;;;;;;;;;;;;;;5.60;50.65;96876.56;4217410;28;5818;-64
2023/01/26 14:47:52;;;;;;;;;;;;;;;5.57;50.56;96879.53;4217440;28;5675;-64
2023/01/26 14:50:00;;;;;;;;;;;;;;;5.41;50.60;96884.72;4217613;28;5671;-64
2023/01/26 14:52:03;;;;;;;;;;;;;;;5.45;50.87;96888.69;4217337;28;5676;-63
2023/01/26 14:54:18;;;;;;;;;;;;;;;5.41;50.66;96884.72;4217410;28;5687;-64
2023/01/26 14:56:27;;;;;;;;;;;;;;;5.35;50.70;96890.59;4217373;28;5663;-63
2023/01/26 14:58:32;;;;;;;;;;;;;;;5.31;50.84;96887.44;4217548;28;5679;-63
2023/01/26 15:00:37;;;;;;;;;;;;;;;5.30;50.73;96887.59;4217375;28;5667;-64
2023/01/26 15:02:46;;;;;;;;;;;;;;;5.32;50.88;96891.72;4215749;28;5686;-63
2023/01/26 15:04:53;;;;;;;;;;;;;;;5.38;50.71;96898.13;4227010;28;5650;-63
2023/01/26 15:07:32;;;;;;;;;;;;;;;5.45;50.75;96899.16;4234267;28;5665;-63
2023/01/26 15:09:35;;;;;;;;;;;;;;;5.43;50.57;96901.91;4234094;28;5808;-64
2023/01/26 15:14:00;;;;;;;;;;;;;;;5.29;50.91;96901.69;4235420;28;5681;-63
2023/01/26 15:16:06;;;;;;;;;;;;;;;5.29;50.73;96901.69;4237828;28;5761;-63
2023/01/26 15:18:20;;;;;;;;;;;;;;;5.29;50.69;96906.94;4237413;28;5816;-63
2023/01/26 15:20:40;;;;;;;;;;;;;;;5.24;50.72;96896.94;4237655;28;5833;-64
2023/01/26 15:22:50;;;;;;;;;;;;;;;5.14;50.80;96893.63;4237376;28;5737;-63
2023/01/26 15:25:06;;;;;;;;;;;;;;;5.21;50.88;96900.72;4237197;28;5650;-63
2023/01/26 15:27:12;;;;;;;;;;;;;;;5.32;50.88;96896.94;4236039;28;5746;-64
2023/01/26 15:29:23;;;;;;;;;;;;;;;5.33;50.65;96903.88;4229745;27;6344;-63
2023/01/26 15:31:30;;;;;;;;;;;;;;;5.30;50.78;96904.16;4234413;28;5634;-62
2023/01/26 15:33:51;;;;;;;;;;;;;;;5.25;50.67;96902.03;4237247;28;5686;-62
2023/01/26 15:35:57;;;;;;;;;;;;;;;5.27;50.82;96894.00;4228821;28;5794;-63
2023/01/26 15:38:04;;;;;;;;;;;;;;;5.24;50.77;96900.38;4231929;28;5784;-63
2023/01/26 15:40:08;;;;;;;;;;;;;;;5.19;50.92;96907.88;4232758;28;5656;-63
2023/01/26 15:42:13;;;;;;;;;;;;;;;5.09;50.83;96895.88;4234479;27;5831;-63
2023/01/26 15:44:18;;;;;;;;;;;;;;;5.02;50.89;96906.16;4228229;28;5638;-64
2023/01/26 15:46:21;;;;;;;;;;;;;;;4.94;51.03;96893.00;4232767;28;5733;-64
2023/01/26 15:48:25;;;;;;;;;;;;;;;4.92;51.12;96905.44;4228444;28;5951;-63
2023/01/26 15:50:28;;;;;;;;;;;;;;;5.07;50.99;96906.50;4227189;28;5684;-63
2023/01/26 15:52:31;;;;;;;;;;;;;;;5.10;50.77;96908.84;4224818;28;5572;-64
2023/01/26 15:54:36;;;;;;;;;;;;;;;5.12;50.84;96911.31;4226333;27;6638;-62
2023/01/26 15:56:38;;;;;;;;;;;;;;;5.15;50.87;96911.81;4235512;28;5642;-62
2023/01/26 15:58:42;;;;;;;;;;;;;;;5.20;50.69;96914.75;4230887;28;5828;-62
2023/01/26 16:00:46;;;;;;;;;;;;;;;5.22;50.80;96909.38;4226533;28;5738;-61
2023/01/26 16:02:49;;;;;;;;;;;;;;;5.31;50.75;96918.91;4225989;28;5750;-62
2023/01/26 16:04:52;;;;;;;;;;;;;;;5.34;50.76;96915.19;4221256;28;5797;-63
2023/01/26 16:06:55;;;;;;;;;;;;;;;5.38;50.97;96913.88;4236821;28;5670;-62
2023/01/26 16:08:58;;;;;;;;;;;;;;;5.38;50.81;96914.69;4233870;28;5681;-61
2023/01/26 16:11:03;;;;;;;;;;;;;;;5.35;50.64;96922.06;4222232;28;5690;-62
2023/01/26 16:13:08;;;;;;;;;;;;;;;5.30;50.81;96917.25;4231837;28;6336;-61
2023/01/26 16:15:23;;;;;;;;;;;;;;;5.12;51.05;96912.13;4230639;28;5704;-62
2023/01/26 16:17:27;;;;;;;;;;;;;;;5.14;51.20;96912.78;4221647;28;5746;-63
2023/01/26 16:19:30;;;;;;;;;;;;;;;5.20;51.01;96914.75;4232230;28;5717;-64
2023/01/26 16:21:38;;;;;;;;;;;;;;;5.21;51.13;96918.22;4231922;27;5087;-61
2023/01/26 16:23:43;;;;;;;;;;;;;;;5.23;51.01;96914.47;4217850;28;5837;-61
2023/01/26 16:25:47;;;;;;;;;;;;;;;5.27;51.07;96917.59;4225415;28;5793;-61
2023/01/26 16:27:51;;;;;;;;;;;;;;;5.30;50.92;96913.81;4229736;28;5683;-60
2023/01/26 16:29:54;;;;;;;;;;;;;;;5.25;51.06;96923.00;4232182;27;5638;-61
2023/01/26 16:31:57;;;;;;;;;;;;;;;5.20;50.92;96914.75;4230030;28;5658;-60
2023/01/26 16:34:00;;;;;;;;;;;;;;;5.13;50.92;96911.13;4228966;28;5877;-61
2023/01/26 16:36:04;;;;;;;;;;;;;;;5.16;51.00;96925.72;4220763;28;5838;-62
2023/01/26 16:38:11;;;;;;;;;;;;;;;5.11;50.97;96915.72;4227928;28;5764;-62
2023/01/26 16:40:17;;;;;;;;;;;;;;;5.10;50.97;96923.75;4223624;28;5884;-61
2023/01/26 16:42:21;;;;;;;;;;;;;;;5.09;51.02;96919.44;4226671;28;5744;-62
2023/01/26 16:44:25;;;;;;;;;;;;;;;5.11;51.15;96930.63;4227040;28;5847;-62
2023/01/26 16:46:29;;;;;;;;;;;;;;;4.97;51.06;96929.38;4231560;28;5728;-62
2023/01/26 16:48:33;;;;;;;;;;;;;;;4.86;51.17;96919.16;4223050;28;5746;-62
2023/01/26 16:50:36;;;;;;;;;;;;;;;4.89;51.36;96918.88;4222849;28;5766;-62
2023/01/26 16:52:41;;;;;;;;;;;;;;;4.95;51.22;96918.22;4226552;28;5856;-61
2023/01/26 16:54:44;;;;;;;;;;;;;;;4.99;51.16;96924.81;4217086;28;5881;-61
2023/01/26 16:56:47;;;;;;;;;;;;;;;5.03;51.12;96928.78;4217728;28;5750;-61
2023/01/26 16:58:49;;;;;;;;;;;;;;;5.13;51.05;96933.91;4218471;28;5667;-63
2023/01/26 17:00:54;;;;;;;;;;;;;;;5.09;51.11;96937.78;4216853;28;5771;-60
2023/01/26 17:02:57;;;;;;;;;;;;;;;5.05;51.10;96929.44;4221006;28;5678;-61
2023/01/26 17:05:00;;;;;;;;;;;;;;;5.06;50.98;96931.06;4229076;28;5740;-61
2023/01/26 17:07:02;;;;;;;;;;;;;;;5.02;51.05;96928.94;4223208;28;5745;-61
2023/01/26 17:09:05;;;;;;;;;;;;;;;5.00;51.12;96923.84;4223813;28;5770;-61
2023/01/26 17:11:15;;;;;;;;;;;;;;;5.09;51.16;96928.13;4219380;28;5676;-61
2023/01/26 17:13:18;;;;;;;;;;;;;;;5.13;50.97;96929.47;4227535;28;5639;-62
2023/01/26 17:15:20;;;;;;;;;;;;;;;5.02;51.10;96932.38;4222509;28;5654;-61
2023/01/26 17:17:24;;;;;;;;;;;;;;;5.06;51.13;96932.88;4221257;28;5774;-62
2023/01/26 17:19:27;;;;;;;;;;;;;;;5.15;51.34;96927.53;4223716;28;5717;-61
2023/01/26 17:21:30;;;;;;;;;;;;;;;5.21;51.02;96926.09;4218912;28;5849;-62
2023/01/26 17:23:33;;;;;;;;;;;;;;;5.30;50.94;96924.31;4221200;28;5847;-61
2023/01/26 17:25:36;;;;;;;;;;;;;;;5.34;50.94;96936.16;4228337;28;5642;-61
2023/01/26 17:27:38;;;;;;;;;;;;;;;5.34;51.04;96925.66;4220698;28;5691;-62
2023/01/26 17:29:41;;;;;;;;;;;;;;;5.26;50.96;96924.63;4221269;28;5763;-61
2023/01/26 17:31:44;;;;;;;;;;;;;;;5.08;51.06;96925.66;4221217;28;5757;-62
2023/01/26 17:33:49;;;;;;;;;;;;;;;5.04;51.16;96922.53;4222753;28;5638;-61
2023/01/26 17:36:00;;;;;;;;;;;;;;;5.15;51.27;96922.28;4221395;28;5835;-61
2023/01/26 17:38:03;;;;;;;;;;;;;;;5.25;51.05;96916.94;4223236;28;5736;-61
2023/01/26 17:40:07;;;;;;;;;;;;;;;5.33;51.03;96924.03;4225749;27;6281;-62
2023/01/26 17:42:10;;;;;;;;;;;;;;;5.29;50.87;96922.66;4223741;28;5784;-61
2023/01/26 17:44:14;;;;;;;;;;;;;;;5.29;51.09;96917.44;4223495;28;5703;-62
2023/01/26 17:46:19;;;;;;;;;;;;;;;5.32;51.00;96917.09;4226212;28;5770;-62
2023/01/26 17:48:22;;;;;;;;;;;;;;;5.28;51.00;96921.03;4228104;28;5894;-61
2023/01/26 17:50:26;;;;;;;;;;;;;;;5.22;51.09;96918.06;4223375;28;5662;-61
2023/01/26 17:52:30;;;;;;;;;;;;;;;5.20;51.15;96919.19;4221391;28;5841;-61
2023/01/26 17:54:32;;;;;;;;;;;;;;;5.07;51.35;96914.38;4221285;28;5977;-61
2023/01/26 17:56:35;;;;;;;;;;;;;;;5.06;51.39;96919.78;4225582;28;5634;-60
2023/01/26 17:58:38;;;;;;;;;;;;;;;5.13;51.20;96921.63;4221633;28;5678;-61
2023/01/26 18:00:41;;;;;;;;;;;;;;;5.10;51.32;96915.88;4220924;28;5841;-61
2023/01/26 18:02:44;;;;;;;;;;;;;;;5.13;51.22;96920.81;4222370;28;5646;-61
2023/01/26 18:04:47;;;;;;;;;;;;;;;5.12;51.28;96925.22;4223086;28;5973;-62
2023/01/26 18:06:51;;;;;;;;;;;;;;;5.04;51.19;96914.69;4223741;28;5671;-62
2023/01/26 18:08:54;;;;;;;;;;;;;;;5.09;51.18;96917.66;4218821;28;5841;-62
2023/01/26 18:10:58;;;;;;;;;;;;;;;5.16;51.15;96917.88;4219371;28;5944;-61
2023/01/26 18:13:01;;;;;;;;;;;;;;;5.11;51.10;96918.34;4221977;28;5723;-62
2023/01/26 18:15:05;;;;;;;;;;;;;;;5.18;51.25;96916.72;4222053;28;5638;-61
2023/01/26 18:17:07;;;;;;;;;;;;;;;5.23;51.07;96919.72;4223944;28;5645;-62
2023/01/26 18:19:10;;;;;;;;;;;;;;;5.24;51.07;96910.88;4225770;28;5741;-62
2023/01/26 18:21:15;;;;;;;;;;;;;;;5.23;51.13;96916.28;4230638;28;5650;-62
2023/01/26 18:23:20;;;;;;;;;;;;;;;5.24;51.07;96908.25;4227671;28;5762;-63
2023/01/26 18:25:23;;;;;;;;;;;;;;;5.29;51.05;96909.56;4227658;28;5873;-61